Time;durP1;ratioP1;P1;durP2;ratioP2;P2;SDS_P1;SDS_P2;PMS_P1;PMS_P2;Temp;Humidity;BMP_temperature;BMP_pressure;BME280_temperature;BME280_humidity;BME280_pressure;Samples;Min_cycle;Max_cycle;Signal;HPM_P1;HPM_P2
2023/08/11 00:00:43;;;;;;;5.70;4.57;;;9.80;99.90;;;;;;5072339;28;20024;-83
2023/08/11 00:03:09;;;;;;;5.57;4.53;;;9.80;99.90;;;;;;5070868;28;20073;-84
2023/08/11 00:05:38;;;;;;;6.10;4.55;;;9.80;99.90;;;;;;5072603;28;20024;-83
2023/08/11 00:08:05;;;;;;;6.43;4.80;;;9.70;99.90;;;;;;5072165;28;20039;-82
2023/08/11 00:10:32;;;;;;;5.40;4.90;;;9.70;99.90;;;;;;5072436;28;20028;-82
2023/08/11 00:12:58;;;;;;;5.00;4.50;;;9.70;99.90;;;;;;5070712;28;20024;-82
2023/08/11 00:15:24;;;;;;;4.78;4.38;;;9.70;99.90;;;;;;5068642;28;20044;-82
2023/08/11 00:17:52;;;;;;;4.82;4.43;;;9.60;99.90;;;;;;5071881;28;20119;-83
2023/08/11 00:20:18;;;;;;;5.65;4.90;;;9.60;99.90;;;;;;5071856;28;20550;-82
2023/08/11 00:22:43;;;;;;;5.63;5.00;;;9.60;99.90;;;;;;5070802;28;20052;-81
2023/08/11 00:25:10;;;;;;;5.20;4.70;;;9.60;99.90;;;;;;5072221;28;20067;-82
2023/08/11 00:27:36;;;;;;;5.63;5.00;;;9.60;99.90;;;;;;5072269;28;20537;-81
2023/08/11 00:30:02;;;;;;;6.07;5.40;;;9.50;99.90;;;;;;5072139;28;20103;-81
2023/08/11 00:32:28;;;;;;;5.60;4.68;;;9.50;99.90;;;;;;5070740;28;20016;-82
2023/08/11 00:34:54;;;;;;;5.45;4.63;;;9.50;99.90;;;;;;5070473;28;20020;-82
2023/08/11 00:37:19;;;;;;;8.27;5.28;;;9.50;99.90;;;;;;5070944;28;20053;-81
2023/08/11 00:39:45;;;;;;;7.78;5.82;;;9.40;99.90;;;;;;5071844;28;20021;-82
2023/08/11 00:42:11;;;;;;;5.90;5.30;;;9.30;99.90;;;;;;5070829;28;20024;-82
2023/08/11 00:44:36;;;;;;;5.72;5.22;;;9.30;99.90;;;;;;5070434;28;20024;-81
2023/08/11 00:47:03;;;;;;;6.15;5.63;;;9.30;99.90;;;;;;5073016;28;20036;-82
2023/08/11 00:49:29;;;;;;;7.40;5.70;;;9.30;99.90;;;;;;5074209;28;20020;-82
2023/08/11 00:51:54;;;;;;;6.78;5.88;;;9.20;99.90;;;;;;5075392;28;20484;-83
2023/08/11 00:54:21;;;;;;;8.90;6.88;;;9.20;99.90;;;;;;5074318;28;20028;-82
2023/08/11 00:56:48;;;;;;;7.82;5.65;;;9.20;99.90;;;;;;5075095;28;20397;-82
2023/08/11 00:59:19;;;;;;;7.78;5.80;;;9.20;99.90;;;;;;5081997;28;20036;-83
2023/08/11 01:01:45;;;;;;;6.78;6.13;;;9.30;99.90;;;;;;5073536;28;20036;-83
2023/08/11 01:04:10;;;;;;;8.20;6.15;;;9.20;99.90;;;;;;5075436;28;20474;-82
2023/08/11 01:06:40;;;;;;;7.80;6.38;;;9.20;99.90;;;;;;5076542;28;20028;-82
2023/08/11 01:09:19;;;;;;;14.13;9.43;;;9.10;99.90;;;;;;5073926;28;20028;-83
2023/08/11 01:12:05;;;;;;;10.43;6.78;;;9.10;99.90;;;;;;5074107;28;20043;-83
2023/08/11 01:14:45;;;;;;;8.25;7.03;;;9.10;99.90;;;;;;5073315;28;20140;-83
2023/08/11 01:17:13;;;;;;;13.35;9.05;;;9.10;99.90;;;;;;5073890;28;20588;-82
2023/08/11 01:19:39;;;;;;;8.40;6.65;;;9.00;99.90;;;;;;5075255;28;20454;-84
2023/08/11 01:22:13;;;;;;;4.47;4.07;;;9.00;99.90;;;;;;5074720;28;20103;-81
2023/08/11 01:24:39;;;;;;;4.43;3.80;;;8.80;99.90;;;;;;5073483;28;20021;-82
2023/08/11 01:27:06;;;;;;;3.10;2.90;;;8.70;99.90;;;;;;5073589;28;20082;-81
2023/08/11 01:29:31;;;;;;;3.45;3.25;;;8.70;99.90;;;;;;5073700;28;20035;-82
2023/08/11 01:31:57;;;;;;;3.63;3.42;;;8.60;99.90;;;;;;5074518;28;20021;-83
2023/08/11 01:34:23;;;;;;;4.03;3.72;;;8.60;99.90;;;;;;5073569;28;20421;-82
2023/08/11 01:36:56;;;;;;;4.20;3.80;;;8.50;99.90;;;;;;5074641;28;20028;-80
2023/08/11 01:39:22;;;;;;;4.10;3.80;;;8.50;99.90;;;;;;5073722;28;20016;-82
2023/08/11 01:41:48;;;;;;;7.65;5.22;;;8.50;99.90;;;;;;5073277;28;20025;-83
2023/08/11 01:44:14;;;;;;;6.60;5.85;;;8.60;99.90;;;;;;5074988;28;20032;-83
2023/08/11 01:46:41;;;;;;;6.22;5.63;;;8.60;99.90;;;;;;5073139;28;20070;-83
2023/08/11 01:49:10;;;;;;;9.38;6.38;;;8.50;99.90;;;;;;5073244;28;20025;-83
2023/08/11 01:51:36;;;;;;;8.02;6.28;;;8.50;99.90;;;;;;5073086;28;20021;-82
2023/08/11 01:54:02;;;;;;;6.63;5.88;;;8.60;99.90;;;;;;5073109;28;20024;-81
2023/08/11 01:56:28;;;;;;;6.82;6.18;;;8.60;99.90;;;;;;5072878;28;20488;-81
2023/08/11 01:58:56;;;;;;;6.97;6.28;;;8.60;99.90;;;;;;5073675;28;20105;-81
2023/08/11 02:01:21;;;;;;;7.80;6.85;;;8.60;99.90;;;;;;5074064;28;20640;-84
2023/08/11 02:03:47;;;;;;;7.75;5.85;;;8.60;99.90;;;;;;5072990;28;20058;-84
2023/08/11 02:06:14;;;;;;;6.00;5.40;;;8.50;99.90;;;;;;5074076;28;20040;-84
2023/08/11 02:08:40;;;;;;;7.15;5.93;;;8.60;99.90;;;;;;5072599;28;20036;-84
2023/08/11 02:11:06;;;;;;;7.13;6.07;;;8.60;99.90;;;;;;5073878;28;20020;-80
2023/08/11 02:13:31;;;;;;;8.15;6.22;;;8.60;99.90;;;;;;5072661;28;20017;-81
2023/08/11 02:15:57;;;;;;;6.30;5.70;;;8.60;99.90;;;;;;5073721;28;20052;-81
2023/08/11 02:18:22;;;;;;;6.22;5.63;;;8.50;99.90;;;;;;5072646;28;20442;-81
2023/08/11 02:20:48;;;;;;;6.78;6.10;;;8.50;99.90;;;;;;5073516;28;20032;-81
2023/08/11 02:23:13;;;;;;;7.43;5.47;;;8.50;99.90;;;;;;5072378;28;20450;-83
2023/08/11 02:25:39;;;;;;;6.22;5.32;;;8.50;99.90;;;;;;5072224;28;20119;-81
2023/08/11 02:28:05;;;;;;;5.88;5.38;;;8.40;99.90;;;;;;5073899;28;20104;-83
2023/08/11 02:30:31;;;;;;;5.53;5.03;;;8.40;99.90;;;;;;5073143;28;20500;-83
2023/08/11 02:32:57;;;;;;;5.25;4.75;;;8.40;99.90;;;;;;5072414;28;20021;-83
2023/08/11 02:35:22;;;;;;;5.60;5.10;;;8.30;99.90;;;;;;5073641;28;20142;-82
2023/08/11 02:37:48;;;;;;;5.68;4.22;;;8.30;99.90;;;;;;5072160;28;20047;-83
2023/08/11 02:40:15;;;;;;;4.70;4.30;;;8.30;99.90;;;;;;5073531;28;20042;-82
2023/08/11 02:42:48;;;;;;;4.80;4.40;;;8.20;99.90;;;;;;5072125;28;20112;-81
2023/08/11 02:45:15;;;;;;;4.93;4.03;;;8.10;99.90;;;;;;5071946;28;20020;-80
2023/08/11 02:47:41;;;;;;;4.72;4.35;;;8.10;99.90;;;;;;5073083;28;20477;-81
2023/08/11 02:50:08;;;;;;;4.25;3.95;;;8.00;99.90;;;;;;5073286;28;20043;-81
2023/08/11 02:52:34;;;;;;;6.15;5.18;;;8.00;99.90;;;;;;5072053;28;20111;-81
2023/08/11 02:55:02;;;;;;;4.82;4.32;;;7.90;99.90;;;;;;5073044;28;20114;-83
2023/08/11 02:57:28;;;;;;;5.65;5.15;;;7.90;99.90;;;;;;5073309;28;20370;-81
2023/08/11 02:59:53;;;;;;;6.15;4.93;;;7.90;99.90;;;;;;5072972;28;20096;-83
2023/08/11 03:02:19;;;;;;;5.28;4.70;;;7.90;99.90;;;;;;5071808;28;20443;-81
2023/08/11 03:04:45;;;;;;;6.97;5.10;;;7.90;99.90;;;;;;5071682;28;20496;-81
2023/08/11 03:07:12;;;;;;;5.38;4.88;;;7.90;99.90;;;;;;5073120;28;20500;-83
2023/08/11 03:09:37;;;;;;;6.00;5.43;;;8.00;99.90;;;;;;5071369;28;20017;-80
2023/08/11 03:12:03;;;;;;;5.57;4.75;;;7.90;99.90;;;;;;5071225;28;20020;-81
2023/08/11 03:14:29;;;;;;;5.82;5.20;;;8.00;99.90;;;;;;5072477;28;20044;-81
2023/08/11 03:16:54;;;;;;;6.05;4.88;;;8.00;99.90;;;;;;5071891;28;20036;-81
2023/08/11 03:19:20;;;;;;;8.40;5.68;;;7.90;99.90;;;;;;5072766;28;20017;-84
2023/08/11 03:21:46;;;;;;;6.85;6.20;;;7.90;99.90;;;;;;5071640;28;20462;-83
2023/08/11 03:24:12;;;;;;;5.93;5.38;;;7.90;99.90;;;;;;5070770;28;20491;-83
2023/08/11 03:26:38;;;;;;;6.85;6.00;;;7.80;99.90;;;;;;5071482;28;20107;-81
2023/08/11 03:29:03;;;;;;;8.55;5.90;;;7.70;99.90;;;;;;5072603;28;20024;-81
2023/08/11 03:31:29;;;;;;;6.85;4.63;;;7.70;99.90;;;;;;5072690;28;20021;-83
2023/08/11 03:33:55;;;;;;;6.53;5.15;;;7.70;99.90;;;;;;5071476;28;20017;-81
2023/08/11 03:36:20;;;;;;;6.53;5.60;;;7.70;99.90;;;;;;5071285;28;20107;-81
2023/08/11 03:38:46;;;;;;;5.93;5.22;;;7.70;99.90;;;;;;5071097;28;20470;-82
2023/08/11 03:41:12;;;;;;;4.95;4.55;;;7.70;99.90;;;;;;5071491;28;20116;-80
2023/08/11 03:43:38;;;;;;;5.20;4.70;;;7.70;99.90;;;;;;5072410;28;20044;-81
2023/08/11 03:46:03;;;;;;;5.72;5.22;;;7.70;99.90;;;;;;5071439;28;20024;-80
2023/08/11 03:48:29;;;;;;;5.03;4.63;;;7.70;99.90;;;;;;5071197;28;20035;-81
2023/08/11 03:51:02;;;;;;;6.20;5.60;;;7.70;99.90;;;;;;5071391;28;20530;-81
2023/08/11 03:53:28;;;;;;;8.77;5.25;;;7.70;99.90;;;;;;5072417;28;20111;-81
2023/08/11 03:55:54;;;;;;;5.43;4.95;;;7.70;99.90;;;;;;5072508;28;20090;-81
2023/08/11 03:58:23;;;;;;;5.72;5.00;;;7.80;99.90;;;;;;5070795;28;20070;-81
2023/08/11 04:00:49;;;;;;;4.88;4.47;;;7.80;99.90;;;;;;5071171;28;20017;-81
2023/08/11 04:03:15;;;;;;;5.20;4.70;;;7.90;99.90;;;;;;5070937;28;20563;-81
2023/08/11 04:05:41;;;;;;;4.40;3.95;;;8.00;99.90;;;;;;5072502;28;20031;-82
2023/08/11 04:08:07;;;;;;;4.32;4.03;;;8.10;99.90;;;;;;5070960;28;20382;-82
2023/08/11 04:10:36;;;;;;;4.13;3.83;;;8.20;99.90;;;;;;5072474;28;20094;-81
2023/08/11 04:13:02;;;;;;;4.68;4.30;;;8.30;99.90;;;;;;5072122;28;20024;-81
2023/08/11 04:15:28;;;;;;;4.75;4.22;;;8.40;99.90;;;;;;5069959;28;20029;-82
2023/08/11 04:17:53;;;;;;;4.80;4.10;;;8.60;99.90;;;;;;5073362;28;20090;-83
2023/08/11 04:20:19;;;;;;;4.63;4.22;;;8.70;99.90;;;;;;5065292;28;20025;-83
2023/08/11 04:22:45;;;;;;;5.05;4.65;;;8.80;99.90;;;;;;5071546;28;20024;-83
2023/08/11 04:25:12;;;;;;;5.47;4.22;;;8.90;99.90;;;;;;5067823;28;20386;-83
2023/08/11 04:27:39;;;;;;;4.50;4.10;;;9.10;99.90;;;;;;5074037;28;20033;-80
2023/08/11 04:30:06;;;;;;;4.70;4.30;;;9.30;99.90;;;;;;5075976;28;20078;-81
2023/08/11 04:32:32;;;;;;;5.47;4.97;;;9.40;99.90;;;;;;5074966;28;20024;-81
2023/08/11 04:34:58;;;;;;;5.05;4.57;;;9.50;99.90;;;;;;5074757;28;20024;-84
2023/08/11 04:37:23;;;;;;;4.43;4.13;;;9.60;99.90;;;;;;5074577;28;20052;-83
2023/08/11 04:39:49;;;;;;;4.32;4.03;;;9.70;99.90;;;;;;5075340;28;20115;-81
2023/08/11 04:42:15;;;;;;;4.57;4.18;;;9.90;99.90;;;;;;5074621;28;20017;-82
2023/08/11 04:44:40;;;;;;;5.60;4.63;;;9.90;99.90;;;;;;5073928;28;20024;-83
2023/08/11 04:47:06;;;;;;;5.07;4.68;;;10.00;99.90;;;;;;5074141;28;20101;-82
2023/08/11 04:49:32;;;;;;;5.22;4.82;;;10.10;99.90;;;;;;5060977;28;20108;-82
2023/08/11 04:51:58;;;;;;;5.10;4.70;;;10.20;99.90;;;;;;5073232;28;20033;-81
2023/08/11 04:54:24;;;;;;;6.30;4.40;;;10.30;99.90;;;;;;5072461;28;20025;-81
2023/08/11 04:56:50;;;;;;;5.63;4.93;;;10.40;99.90;;;;;;5074089;28;20037;-82
2023/08/11 04:59:17;;;;;;;7.03;5.03;;;10.50;99.90;;;;;;5073238;28;20100;-82
2023/08/11 05:01:43;;;;;;;8.63;4.88;;;10.60;99.90;;;;;;5075345;28;20048;-81
2023/08/11 05:04:09;;;;;;;5.63;5.13;;;10.80;99.90;;;;;;5075423;28;20056;-82
2023/08/11 05:06:35;;;;;;;5.70;4.80;;;10.90;99.90;;;;;;5072876;28;20077;-81
2023/08/11 05:09:02;;;;;;;9.20;6.10;;;10.90;99.90;;;;;;5074111;28;20107;-81
2023/08/11 05:11:28;;;;;;;6.72;5.57;;;11.00;99.90;;;;;;5090884;28;20043;-81
2023/08/11 05:13:54;;;;;;;9.70;5.50;;;11.20;99.90;;;;;;5073552;28;20048;-81
2023/08/11 05:16:20;;;;;;;6.47;5.88;;;11.30;99.90;;;;;;5073846;28;20392;-82
2023/08/11 05:18:46;;;;;;;6.63;5.90;;;11.50;99.90;;;;;;5073855;28;20033;-82
2023/08/11 05:21:15;;;;;;;8.05;6.18;;;11.60;99.90;;;;;;5074361;28;20393;-82
2023/08/11 05:23:40;;;;;;;8.48;6.30;;;11.80;99.90;;;;;;5074656;28;20055;-82
2023/08/11 05:26:06;;;;;;;9.90;7.43;;;12.00;99.90;;;;;;5074700;28;20074;-82
2023/08/11 05:28:32;;;;;;;9.50;7.82;;;12.10;99.90;;;;;;5073592;28;20526;-81
2023/08/11 05:30:57;;;;;;;14.38;11.43;;;12.30;99.90;;;;;;5073500;28;20438;-82
2023/08/11 05:33:24;;;;;;;15.27;12.50;;;12.40;99.90;;;;;;5072397;28;20055;-82
2023/08/11 05:35:51;;;;;;;15.57;11.43;;;12.60;99.90;;;;;;5073512;28;20090;-82
2023/08/11 05:38:22;;;;;;;14.82;11.50;;;12.70;99.90;;;;;;5073309;28;20497;-82
2023/08/11 05:40:52;;;;;;;20.48;13.88;;;12.90;99.90;;;;;;5074801;28;20023;-82
2023/08/11 05:43:18;;;;;;;19.08;13.05;;;13.00;99.90;;;;;;5080461;28;20025;-81
2023/08/11 05:45:43;;;;;;;22.00;15.55;;;13.10;99.90;;;;;;5073645;28;20164;-81
2023/08/11 05:48:09;;;;;;;20.85;14.63;;;13.30;99.90;;;;;;5074239;28;20025;-81
2023/08/11 05:50:35;;;;;;;15.88;13.68;;;13.40;99.90;;;;;;5074288;28;20520;-81
2023/08/11 05:53:01;;;;;;;18.48;13.35;;;13.50;99.90;;;;;;5073214;28;20032;-81
2023/08/11 05:55:26;;;;;;;16.67;12.18;;;13.60;99.90;;;;;;5072281;28;20143;-82
2023/08/11 05:57:52;;;;;;;18.30;12.00;;;13.80;99.90;;;;;;5070394;28;20207;-82
2023/08/11 06:00:19;;;;;;;15.32;11.75;;;13.90;99.90;;;;;;5071200;28;20035;-82
2023/08/11 06:02:47;;;;;;;17.30;11.65;;;14.00;99.90;;;;;;5070760;28;20382;-82
2023/08/11 06:05:12;;;;;;;15.98;11.30;;;14.20;99.90;;;;;;5071803;28;20032;-82
2023/08/11 06:07:39;;;;;;;16.75;12.93;;;14.20;99.90;;;;;;5071115;28;20392;-82
2023/08/11 06:10:05;;;;;;;18.67;11.88;;;14.30;99.90;;;;;;5070387;28;20016;-82
2023/08/11 06:12:31;;;;;;;13.38;11.35;;;14.50;99.90;;;;;;5071653;28;20023;-81
2023/08/11 06:14:57;;;;;;;15.20;10.48;;;14.70;99.90;;;;;;5072277;28;20060;-82
2023/08/11 06:17:23;;;;;;;17.15;10.73;;;14.80;99.90;;;;;;5072634;28;20040;-83
2023/08/11 06:19:48;;;;;;;16.48;10.77;;;15.00;99.90;;;;;;5072015;28;20028;-82
2023/08/11 06:22:14;;;;;;;15.43;10.15;;;15.10;99.90;;;;;;5073614;28;20016;-82
2023/08/11 06:24:40;;;;;;;16.20;10.60;;;15.30;99.90;;;;;;5072531;28;20026;-84
2023/08/11 06:27:06;;;;;;;12.20;9.63;;;15.40;99.90;;;;;;5072765;28;20531;-82
2023/08/11 06:29:31;;;;;;;17.52;9.52;;;15.50;99.90;;;;;;5072362;28;20019;-82
2023/08/11 06:31:57;;;;;;;10.07;8.88;;;15.50;99.90;;;;;;5071601;28;20024;-81
2023/08/11 06:34:23;;;;;;;9.93;7.65;;;15.60;99.90;;;;;;5071523;28;20021;-82
2023/08/11 06:36:49;;;;;;;13.98;8.98;;;15.80;99.90;;;;;;5071942;28;20481;-82
2023/08/11 06:39:14;;;;;;;13.93;8.27;;;15.90;99.90;;;;;;5071312;28;20107;-81
2023/08/11 06:41:40;;;;;;;10.88;8.25;;;16.10;99.90;;;;;;5072662;28;20073;-82
2023/08/11 06:44:07;;;;;;;10.95;8.43;;;16.30;99.80;;;;;;5071199;28;20031;-82
2023/08/11 06:46:33;;;;;;;9.88;7.40;;;16.40;98.10;;;;;;5072790;28;20021;-82
2023/08/11 06:48:59;;;;;;;14.25;7.55;;;16.50;98.80;;;;;;5071316;28;20020;-82
2023/08/11 06:51:24;;;;;;;10.88;7.28;;;16.60;96.90;;;;;;5075457;28;20394;-83
2023/08/11 06:53:50;;;;;;;10.93;6.80;;;16.80;93.20;;;;;;5073170;28;20101;-85
2023/08/11 06:56:15;;;;;;;12.60;7.45;;;17.00;92.20;;;;;;5071125;28;20024;-83
2023/08/11 06:58:41;;;;;;;12.50;7.97;;;17.10;90.40;;;;;;5071754;28;20036;-82
2023/08/11 07:01:07;;;;;;;8.93;6.57;;;17.30;86.50;;;;;;5071881;28;20111;-81
2023/08/11 07:03:33;;;;;;;16.00;8.73;;;17.40;84.00;;;;;;5071604;28;20021;-83
2023/08/11 07:06:00;;;;;;;9.85;6.68;;;17.50;84.40;;;;;;5072708;28;20029;-83
2023/08/11 07:08:26;;;;;;;12.90;9.18;;;17.70;85.40;;;;;;5074280;28;20448;-82
2023/08/11 07:10:51;;;;;;;14.55;8.27;;;17.90;85.10;;;;;;5071388;28;20064;-82
2023/08/11 07:13:17;;;;;;;16.23;9.88;;;18.00;85.40;;;;;;5072793;28;20034;-84
2023/08/11 07:15:43;;;;;;;12.55;8.95;;;18.20;85.30;;;;;;5071495;28;20071;-85
2023/08/11 07:18:10;;;;;;;14.38;8.55;;;18.30;86.20;;;;;;5066958;28;20040;-84
2023/08/11 07:20:43;;;;;;;13.00;8.00;;;18.40;83.70;;;;;;5065553;28;20385;-84
2023/08/11 07:23:08;;;;;;;13.27;8.02;;;18.40;82.40;;;;;;5069213;28;20024;-85
2023/08/11 07:25:35;;;;;;;11.98;7.13;;;18.60;82.20;;;;;;5065281;28;20021;-85
2023/08/11 07:28:00;;;;;;;11.63;7.32;;;18.70;80.60;;;;;;5071200;28;20092;-84
2023/08/11 07:30:26;;;;;;;8.57;7.32;;;18.90;81.20;;;;;;5063755;28;20482;-84
2023/08/11 07:32:52;;;;;;;9.93;7.32;;;19.00;78.50;;;;;;5071277;28;20119;-84
2023/08/11 07:35:17;;;;;;;11.20;7.40;;;19.10;74.80;;;;;;5070248;28;20020;-83
2023/08/11 07:37:43;;;;;;;8.18;6.00;;;19.10;76.50;;;;;;5071400;28;20056;-84
2023/08/11 07:40:09;;;;;;;8.52;6.22;;;19.30;76.50;;;;;;5071780;28;20511;-83
2023/08/11 07:42:35;;;;;;;10.10;6.47;;;19.30;71.00;;;;;;5063065;28;20025;-84
2023/08/11 07:45:00;;;;;;;10.13;7.18;;;19.40;72.30;;;;;;5070468;28;20394;-84
2023/08/11 07:47:26;;;;;;;12.27;5.80;;;19.40;71.10;;;;;;5070253;28;20025;-84
2023/08/11 07:49:52;;;;;;;12.25;5.72;;;19.60;70.80;;;;;;5070089;28;20374;-84
2023/08/11 07:52:18;;;;;;;9.25;5.70;;;19.80;70.70;;;;;;5069830;28;20123;-85
2023/08/11 07:54:44;;;;;;;5.82;4.88;;;19.80;70.70;;;;;;5071461;28;20095;-84
2023/08/11 07:57:10;;;;;;;6.72;4.65;;;20.00;68.90;;;;;;5072216;28;20132;-83
2023/08/11 07:59:36;;;;;;;10.00;5.18;;;20.20;70.80;;;;;;5070742;28;20381;-83
2023/08/11 08:02:03;;;;;;;12.32;5.90;;;20.30;70.10;;;;;;5064150;28;20107;-83
2023/08/11 08:04:29;;;;;;;8.10;4.95;;;20.30;68.90;;;;;;5075411;28;20070;-83
2023/08/11 08:06:55;;;;;;;7.68;4.32;;;20.40;66.90;;;;;;5075187;28;20025;-82
2023/08/11 08:09:20;;;;;;;6.45;5.00;;;20.40;68.10;;;;;;5073940;28;20118;-82
2023/08/11 08:11:47;;;;;;;9.00;5.07;;;20.60;67.00;;;;;;5075617;28;20539;-82
2023/08/11 08:14:13;;;;;;;6.20;4.53;;;20.70;65.30;;;;;;5074655;28;20119;-83
2023/08/11 08:16:44;;;;;;;7.22;4.38;;;20.80;65.20;;;;;;5074702;28;20047;-83
2023/08/11 08:19:11;;;;;;;12.15;4.53;;;20.80;63.40;;;;;;5075089;28;20107;-82
2023/08/11 08:21:37;;;;;;;6.65;4.10;;;21.00;62.40;;;;;;5076328;28;20457;-83
2023/08/11 08:24:04;;;;;;;7.97;4.57;;;21.10;62.60;;;;;;5075586;28;20470;-82
2023/08/11 08:26:30;;;;;;;9.15;5.15;;;21.10;62.50;;;;;;5077517;28;20020;-82
2023/08/11 08:28:56;;;;;;;10.13;5.10;;;21.20;62.60;;;;;;5075218;28;20102;-83
2023/08/11 08:31:22;;;;;;;7.75;5.05;;;21.30;63.30;;;;;;5074892;28;20025;-83
2023/08/11 08:33:47;;;;;;;8.05;5.25;;;21.30;61.90;;;;;;5072329;28;20119;-83
2023/08/11 08:36:13;;;;;;;8.20;5.20;;;21.50;62.50;;;;;;5074262;28;20043;-83
2023/08/11 08:38:39;;;;;;;8.43;5.40;;;21.60;62.00;;;;;;5072444;28;20051;-83
2023/08/11 08:41:08;;;;;;;9.05;4.80;;;21.70;60.70;;;;;;5074872;28;20021;-82
2023/08/11 08:43:34;;;;;;;8.27;3.60;;;21.60;61.30;;;;;;5072309;28;20044;-84
2023/08/11 08:46:02;;;;;;;8.50;4.22;;;21.60;58.50;;;;;;5067305;28;20035;-83
2023/08/11 08:48:38;;;;;;;6.53;3.42;;;21.50;59.00;;;;;;5072651;28;20063;-83
2023/08/11 08:51:05;;;;;;;9.25;4.20;;;21.40;57.90;;;;;;5071322;28;20016;-83
2023/08/11 08:53:31;;;;;;;10.93;3.85;;;21.70;60.10;;;;;;5073044;28;20028;-83
2023/08/11 08:55:57;;;;;;;8.02;4.80;;;21.70;58.50;;;;;;5074110;28;20116;-83
2023/08/11 08:58:23;;;;;;;11.50;5.10;;;21.90;59.10;;;;;;5072215;28;20469;-83
2023/08/11 09:00:50;;;;;;;9.68;5.03;;;22.00;58.90;;;;;;5072861;28;20112;-83
2023/08/11 09:03:16;;;;;;;9.75;4.68;;;22.10;59.20;;;;;;5072125;28;20017;-83
2023/08/11 09:05:42;;;;;;;9.05;4.22;;;22.40;59.50;;;;;;5074094;28;20024;-83
2023/08/11 09:08:08;;;;;;;8.02;4.65;;;22.30;56.70;;;;;;5071595;28;20017;-83
2023/08/11 09:10:36;;;;;;;7.63;4.70;;;22.40;57.50;;;;;;5070094;28;20016;-83
2023/08/11 09:13:02;;;;;;;6.03;3.92;;;22.30;56.50;;;;;;5070056;28;20560;-83
2023/08/11 09:15:28;;;;;;;9.18;3.78;;;22.30;55.30;;;;;;5071298;28;20052;-83
2023/08/11 09:17:55;;;;;;;7.85;3.75;;;22.40;53.80;;;;;;5071649;28;20029;-83
2023/08/11 09:20:20;;;;;;;10.43;4.57;;;22.50;53.90;;;;;;5071949;28;20017;-83
2023/08/11 09:22:46;;;;;;;15.00;5.63;;;22.30;53.80;;;;;;5071693;28;20021;-83
2023/08/11 09:25:12;;;;;;;7.60;4.45;;;22.30;56.20;;;;;;5071788;28;20414;-83
2023/08/11 09:27:38;;;;;;;10.02;4.47;;;22.40;55.80;;;;;;5072644;28;20027;-83
2023/08/11 09:30:04;;;;;;;7.18;3.70;;;22.40;54.00;;;;;;5071420;28;20017;-83
2023/08/11 09:32:33;;;;;;;6.65;3.72;;;22.40;52.80;;;;;;5072959;28;20013;-84
2023/08/11 09:35:09;;;;;;;6.97;4.22;;;22.60;54.10;;;;;;5073554;28;20382;-83
2023/08/11 09:37:36;;;;;;;9.38;4.63;;;22.70;53.60;;;;;;5072929;28;20446;-83
2023/08/11 09:40:04;;;;;;;7.32;4.03;;;22.80;54.50;;;;;;5073102;28;20020;-83
2023/08/11 09:42:31;;;;;;;10.88;4.53;;;22.90;52.20;;;;;;5073255;28;20385;-84
2023/08/11 09:44:56;;;;;;;5.13;3.38;;;22.80;52.20;;;;;;5074292;28;20100;-83
2023/08/11 09:47:22;;;;;;;8.45;4.47;;;22.90;52.30;;;;;;5073688;28;20056;-83
2023/08/11 09:49:48;;;;;;;7.15;3.42;;;22.90;52.10;;;;;;5074396;28;20099;-83
2023/08/11 09:52:15;;;;;;;9.10;4.65;;;23.00;50.10;;;;;;5073273;28;20482;-83
2023/08/11 09:54:42;;;;;;;6.82;3.50;;;23.00;51.60;;;;;;5074232;28;20012;-84
2023/08/11 09:57:08;;;;;;;6.03;3.63;;;23.20;50.70;;;;;;5073281;28;20556;-83
2023/08/11 09:59:34;;;;;;;7.07;3.92;;;23.40;52.00;;;;;;5072936;28;20017;-83
2023/08/11 10:02:02;;;;;;;6.40;3.88;;;23.60;51.20;;;;;;5073280;28;20024;-84
2023/08/11 10:04:42;;;;;;;7.43;3.90;;;23.70;50.60;;;;;;5073758;28;20024;-83
2023/08/11 10:07:12;;;;;;;5.47;3.72;;;23.80;49.80;;;;;;5074561;28;20028;-83
2023/08/11 10:09:39;;;;;;;6.20;3.90;;;23.80;49.30;;;;;;5074026;28;20126;-84
2023/08/11 10:12:06;;;;;;;6.05;4.05;;;23.90;46.40;;;;;;5074358;28;20020;-84
2023/08/11 10:14:36;;;;;;;8.40;4.28;;;23.70;46.80;;;;;;5072528;28;20046;-83
2023/08/11 10:17:03;;;;;;;6.30;3.85;;;23.20;49.40;;;;;;5072704;28;20020;-83
2023/08/11 10:19:29;;;;;;;5.97;3.50;;;23.20;47.40;;;;;;5072269;28;20016;-83
2023/08/11 10:21:56;;;;;;;7.10;4.43;;;23.20;47.50;;;;;;5073951;28;20012;-83
2023/08/11 10:24:22;;;;;;;5.53;3.55;;;23.30;50.40;;;;;;5071976;28;20016;-83
2023/08/11 10:26:48;;;;;;;5.00;2.83;;;23.10;51.10;;;;;;5072631;28;20431;-82
2023/08/11 10:29:15;;;;;;;5.45;3.17;;;23.10;49.80;;;;;;5072463;28;20012;-83
2023/08/11 10:31:57;;;;;;;4.13;3.20;;;23.30;50.50;;;;;;5073381;28;20016;-83
2023/08/11 10:34:23;;;;;;;;;;;23.30;48.00;;;;;;5062202;28;20377;-83
2023/08/11 10:36:50;;;;;;;5.53;3.55;;;23.60;49.30;;;;;;5072071;28;19995;-83
2023/08/11 10:39:18;;;;;;;4.82;3.20;;;23.80;49.90;;;;;;5073587;28;20021;-85
2023/08/11 10:41:45;;;;;;;4.43;2.90;;;23.90;46.10;;;;;;5073526;28;20112;-85
2023/08/11 10:44:11;;;;;;;5.25;3.33;;;24.10;46.10;;;;;;5073680;28;20025;-84
2023/08/11 10:46:36;;;;;;;8.60;4.07;;;23.90;45.30;;;;;;5073155;28;20038;-84
2023/08/11 10:49:08;;;;;;;6.10;3.38;;;23.70;45.40;;;;;;5072160;28;20477;-84
2023/08/11 10:51:36;;;;;;;5.68;3.53;;;23.60;47.10;;;;;;5072098;28;20033;-84
2023/08/11 10:54:09;;;;;;;7.65;3.85;;;23.50;47.20;;;;;;5073325;28;20022;-84
2023/08/11 10:56:39;;;;;;;5.13;3.90;;;23.80;49.30;;;;;;5073140;28;20545;-84
2023/08/11 10:59:11;;;;;;;5.53;3.83;;;24.00;49.60;;;;;;5071923;28;20032;-84
2023/08/11 11:01:40;;;;;;;6.50;3.95;;;24.10;47.60;;;;;;5071808;28;20031;-84
2023/08/11 11:04:07;;;;;;;6.25;3.13;;;24.10;48.50;;;;;;5072021;28;20033;-84
2023/08/11 11:06:34;;;;;;;6.07;3.78;;;24.20;47.80;;;;;;5071695;28;20363;-84
2023/08/11 11:08:59;;;;;;;8.02;3.55;;;24.00;45.90;;;;;;5071835;28;20474;-84
2023/08/11 11:11:25;;;;;;;5.43;3.33;;;24.00;47.60;;;;;;5073138;28;20024;-84
2023/08/11 11:13:52;;;;;;;4.38;3.10;;;24.10;47.80;;;;;;5073010;28;20098;-84
2023/08/11 11:16:19;;;;;;;7.22;3.45;;;24.20;46.20;;;;;;5071643;28;20048;-84
2023/08/11 11:18:47;;;;;;;5.68;3.53;;;24.40;46.80;;;;;;5071755;28;20442;-83
2023/08/11 11:21:13;;;;;;;4.60;3.47;;;24.60;47.90;;;;;;5072861;28;20027;-84
2023/08/11 11:23:44;;;;;;;5.32;3.00;;;24.60;46.70;;;;;;5071433;28;20016;-84
2023/08/11 11:26:10;;;;;;;5.97;3.70;;;24.50;44.40;;;;;;5072741;28;20416;-84
2023/08/11 11:28:35;;;;;;;7.00;3.10;;;24.60;45.30;;;;;;5071690;28;20163;-83
2023/08/11 11:31:01;;;;;;;4.03;3.08;;;24.60;45.70;;;;;;5072940;28;20025;-84
2023/08/11 11:33:28;;;;;;;5.57;3.00;;;24.60;44.70;;;;;;5072613;28;20028;-84
2023/08/11 11:35:53;;;;;;;4.28;2.90;;;24.80;45.60;;;;;;5072639;28;20449;-83
2023/08/11 11:38:20;;;;;;;3.15;2.47;;;24.60;43.60;;;;;;5071212;28;20033;-85
2023/08/11 11:40:49;;;;;;;5.60;2.95;;;24.40;43.10;;;;;;5071287;28;20029;-83
2023/08/11 11:43:14;;;;;;;7.50;3.33;;;24.00;44.40;;;;;;5071441;28;20500;-84
2023/08/11 11:45:40;;;;;;;5.32;3.28;;;23.50;45.10;;;;;;5072782;28;20131;-83
2023/08/11 11:48:06;;;;;;;7.07;3.88;;;23.20;45.90;;;;;;5071492;28;20024;-83
2023/08/11 11:50:34;;;;;;;6.60;3.78;;;23.20;45.90;;;;;;5072470;28;20027;-83
2023/08/11 11:53:00;;;;;;;5.22;3.28;;;23.40;45.60;;;;;;5071131;28;20017;-83
2023/08/11 11:55:26;;;;;;;4.18;3.50;;;23.60;45.20;;;;;;5072632;28;20025;-83
2023/08/11 11:57:55;;;;;;;5.20;3.63;;;23.60;45.80;;;;;;5070945;28;20082;-83
2023/08/11 12:00:22;;;;;;;6.93;3.83;;;23.40;46.10;;;;;;5072657;28;20104;-83
2023/08/11 12:02:48;;;;;;;4.53;3.08;;;23.10;47.20;;;;;;5071345;28;20021;-83
2023/08/11 12:05:14;;;;;;;4.63;2.83;;;23.20;47.80;;;;;;5072427;28;20040;-83
2023/08/11 12:07:40;;;;;;;7.75;4.05;;;23.50;48.20;;;;;;5072200;28;20474;-83
2023/08/11 12:10:06;;;;;;;4.15;3.10;;;23.40;48.40;;;;;;5072488;28;20023;-83
2023/08/11 12:12:32;;;;;;;5.30;3.30;;;23.80;48.00;;;;;;5072256;28;20070;-83
2023/08/11 12:15:03;;;;;;;5.90;3.25;;;24.00;48.60;;;;;;5071001;28;20493;-83
2023/08/11 12:17:33;;;;;;;5.82;3.60;;;24.20;47.70;;;;;;5070908;28;20039;-83
2023/08/11 12:20:08;;;;;;;3.50;2.78;;;24.50;47.60;;;;;;5072407;28;20108;-83
2023/08/11 12:22:33;;;;;;;4.68;2.95;;;24.30;48.20;;;;;;5072153;28;20021;-83
2023/08/11 12:24:59;;;;;;;4.68;3.13;;;24.10;47.70;;;;;;5072222;28;20028;-83
2023/08/11 12:27:25;;;;;;;5.55;3.35;;;24.00;45.70;;;;;;5072051;28;20126;-83
2023/08/11 12:29:51;;;;;;;5.63;3.25;;;24.00;46.90;;;;;;5072248;28;20016;-83
2023/08/11 12:32:16;;;;;;;4.05;3.00;;;24.10;47.90;;;;;;5071237;28;20035;-83
2023/08/11 12:34:42;;;;;;;2.70;2.50;;;24.20;47.00;;;;;;5071406;28;20378;-83
2023/08/11 12:37:08;;;;;;;4.65;2.70;;;24.30;47.00;;;;;;5070690;28;20028;-83
2023/08/11 12:39:33;;;;;;;3.50;2.20;;;24.60;46.90;;;;;;5070901;28;20013;-83
2023/08/11 12:41:59;;;;;;;5.75;2.80;;;24.60;46.30;;;;;;5071916;28;20490;-83
2023/08/11 12:44:25;;;;;;;5.47;2.88;;;24.40;44.80;;;;;;5074307;28;20359;-83